sensor_id;sensor_type;location;lat;lon;timestamp;temperature;humidity
33564;DHT22;19894;48.452;11.494;2023-04-06T00:01:30;18.20;27.90
33564;DHT22;19894;48.452;11.494;2023-04-06T00:03:55;18.20;27.90
33564;DHT22;19894;48.452;11.494;2023-04-06T00:06:21;18.20;27.90
33564;DHT22;19894;48.452;11.494;2023-04-06T00:08:47;18.20;28.00
33564;DHT22;19894;48.452;11.494;2023-04-06T00:11:12;18.20;28.20
33564;DHT22;19894;48.452;11.494;2023-04-06T00:13:38;18.20;28.00
33564;DHT22;19894;48.452;11.494;2023-04-06T00:16:03;18.20;28.10
33564;DHT22;19894;48.452;11.494;2023-04-06T00:18:31;18.20;27.90
33564;DHT22;19894;48.452;11.494;2023-04-06T00:20:56;18.20;27.80
33564;DHT22;19894;48.452;11.494;2023-04-06T00:23:22;18.20;27.80
33564;DHT22;19894;48.452;11.494;2023-04-06T00:25:47;18.20;27.70
33564;DHT22;19894;48.452;11.494;2023-04-06T00:28:13;18.20;28.10
33564;DHT22;19894;48.452;11.494;2023-04-06T00:30:40;18.20;28.40
33564;DHT22;19894;48.452;11.494;2023-04-06T00:33:06;18.30;28.30
33564;DHT22;19894;48.452;11.494;2023-04-06T00:35:31;18.30;28.10
33564;DHT22;19894;48.452;11.494;2023-04-06T00:37:57;18.20;28.10
33564;DHT22;19894;48.452;11.494;2023-04-06T00:40:23;18.20;28.00
33564;DHT22;19894;48.452;11.494;2023-04-06T00:42:48;18.20;28.00
33564;DHT22;19894;48.452;11.494;2023-04-06T00:45:14;18.20;28.00
33564;DHT22;19894;48.452;11.494;2023-04-06T00:47:40;18.20;27.90
33564;DHT22;19894;48.452;11.494;2023-04-06T00:50:06;18.20;27.90
33564;DHT22;19894;48.452;11.494;2023-04-06T00:52:34;18.20;27.90
33564;DHT22;19894;48.452;11.494;2023-04-06T00:55:00;18.20;27.80
33564;DHT22;19894;48.452;11.494;2023-04-06T00:57:25;18.20;27.80
33564;DHT22;19894;48.452;11.494;2023-04-06T00:59:52;18.20;28.20
33564;DHT22;19894;48.452;11.494;2023-04-06T01:02:18;18.20;27.80
33564;DHT22;19894;48.452;11.494;2023-04-06T01:04:44;18.20;27.80
33564;DHT22;19894;48.452;11.494;2023-04-06T01:07:09;18.20;27.90
33564;DHT22;19894;48.452;11.494;2023-04-06T01:09:35;18.20;28.50
33564;DHT22;19894;48.452;11.494;2023-04-06T01:12:01;18.20;28.40
33564;DHT22;19894;48.452;11.494;2023-04-06T01:14:27;18.20;28.10
33564;DHT22;19894;48.452;11.494;2023-04-06T01:16:53;18.20;27.90
33564;DHT22;19894;48.452;11.494;2023-04-06T01:19:18;18.20;27.80
33564;DHT22;19894;48.452;11.494;2023-04-06T01:21:45;18.20;27.70
33564;DHT22;19894;48.452;11.494;2023-04-06T01:24:11;18.20;27.60
33564;DHT22;19894;48.452;11.494;2023-04-06T01:26:38;18.20;27.50
33564;DHT22;19894;48.452;11.494;2023-04-06T01:29:04;18.30;27.60
33564;DHT22;19894;48.452;11.494;2023-04-06T01:31:30;18.20;27.80
33564;DHT22;19894;48.452;11.494;2023-04-06T01:33:55;18.30;28.40
33564;DHT22;19894;48.452;11.494;2023-04-06T01:36:21;18.30;28.30
33564;DHT22;19894;48.452;11.494;2023-04-06T01:38:47;18.20;28.00
33564;DHT22;19894;48.452;11.494;2023-04-06T01:41:12;18.20;28.10
33564;DHT22;19894;48.452;11.494;2023-04-06T01:43:38;18.20;28.50
33564;DHT22;19894;48.452;11.494;2023-04-06T01:46:04;18.20;28.00
33564;DHT22;19894;48.452;11.494;2023-04-06T01:48:29;18.20;27.90
33564;DHT22;19894;48.452;11.494;2023-04-06T01:50:55;18.20;27.80
33564;DHT22;19894;48.452;11.494;2023-04-06T01:53:22;18.20;27.70
33564;DHT22;19894;48.452;11.494;2023-04-06T01:55:47;18.20;27.70
33564;DHT22;19894;48.452;11.494;2023-04-06T01:58:13;18.20;27.70
33564;DHT22;19894;48.452;11.494;2023-04-06T02:00:39;18.20;27.70
33564;DHT22;19894;48.452;11.494;2023-04-06T02:03:04;18.20;27.60
33564;DHT22;19894;48.452;11.494;2023-04-06T02:05:31;18.20;27.60
33564;DHT22;19894;48.452;11.494;2023-04-06T02:07:58;18.20;27.60
33564;DHT22;19894;48.452;11.494;2023-04-06T02:10:23;18.20;27.60
33564;DHT22;19894;48.452;11.494;2023-04-06T02:12:49;18.20;28.30
33564;DHT22;19894;48.452;11.494;2023-04-06T02:15:16;18.20;28.30
33564;DHT22;19894;48.452;11.494;2023-04-06T02:17:42;18.20;28.00
33564;DHT22;19894;48.452;11.494;2023-04-06T02:20:07;18.20;27.80
33564;DHT22;19894;48.452;11.494;2023-04-06T02:22:36;18.20;27.80
33564;DHT22;19894;48.452;11.494;2023-04-06T02:25:02;18.20;27.70
33564;DHT22;19894;48.452;11.494;2023-04-06T02:27:28;18.20;27.50
33564;DHT22;19894;48.452;11.494;2023-04-06T02:29:53;18.20;27.50
33564;DHT22;19894;48.452;11.494;2023-04-06T02:32:19;18.20;27.40
33564;DHT22;19894;48.452;11.494;2023-04-06T02:34:44;18.20;27.60
33564;DHT22;19894;48.452;11.494;2023-04-06T02:37:10;18.30;28.20
33564;DHT22;19894;48.452;11.494;2023-04-06T02:39:36;18.20;28.00
33564;DHT22;19894;48.452;11.494;2023-04-06T02:42:01;18.20;28.00
33564;DHT22;19894;48.452;11.494;2023-04-06T02:44:27;18.20;28.00
33564;DHT22;19894;48.452;11.494;2023-04-06T02:46:52;18.20;28.20
33564;DHT22;19894;48.452;11.494;2023-04-06T02:49:18;18.20;27.70
33564;DHT22;19894;48.452;11.494;2023-04-06T02:51:43;18.20;27.70
33564;DHT22;19894;48.452;11.494;2023-04-06T02:54:09;18.20;27.70
33564;DHT22;19894;48.452;11.494;2023-04-06T02:56:35;18.20;27.60
33564;DHT22;19894;48.452;11.494;2023-04-06T02:59:00;18.20;27.60
33564;DHT22;19894;48.452;11.494;2023-04-06T03:01:26;18.20;27.50
33564;DHT22;19894;48.452;11.494;2023-04-06T03:03:52;18.20;27.50
33564;DHT22;19894;48.452;11.494;2023-04-06T03:06:17;18.20;27.40
33564;DHT22;19894;48.452;11.494;2023-04-06T03:08:43;18.20;27.40
33564;DHT22;19894;48.452;11.494;2023-04-06T03:11:08;18.20;27.50
33564;DHT22;19894;48.452;11.494;2023-04-06T03:13:34;18.20;27.40
33564;DHT22;19894;48.452;11.494;2023-04-06T03:15:59;18.20;27.60
33564;DHT22;19894;48.452;11.494;2023-04-06T03:18:25;18.20;28.20
33564;DHT22;19894;48.452;11.494;2023-04-06T03:20:51;18.20;28.10
33564;DHT22;19894;48.452;11.494;2023-04-06T03:23:19;18.20;28.10
33564;DHT22;19894;48.452;11.494;2023-04-06T03:25:46;18.30;27.80
33564;DHT22;19894;48.452;11.494;2023-04-06T03:28:11;18.20;27.60
33564;DHT22;19894;48.452;11.494;2023-04-06T03:30:37;18.20;27.60
33564;DHT22;19894;48.452;11.494;2023-04-06T03:33:02;18.20;27.50
33564;DHT22;19894;48.452;11.494;2023-04-06T03:35:28;18.20;27.30
33564;DHT22;19894;48.452;11.494;2023-04-06T03:37:53;18.30;27.80
33564;DHT22;19894;48.452;11.494;2023-04-06T03:40:19;18.20;28.10
33564;DHT22;19894;48.452;11.494;2023-04-06T03:42:45;18.20;27.90
33564;DHT22;19894;48.452;11.494;2023-04-06T03:45:10;18.20;27.70
33564;DHT22;19894;48.452;11.494;2023-04-06T03:47:38;18.20;27.70
33564;DHT22;19894;48.452;11.494;2023-04-06T03:50:04;18.20;27.70
33564;DHT22;19894;48.452;11.494;2023-04-06T03:52:30;18.20;27.60
33564;DHT22;19894;48.452;11.494;2023-04-06T03:54:55;18.20;27.50
33564;DHT22;19894;48.452;11.494;2023-04-06T03:57:21;18.20;27.40
33564;DHT22;19894;48.452;11.494;2023-04-06T03:59:46;18.20;27.40
33564;DHT22;19894;48.452;11.494;2023-04-06T04:02:12;18.20;27.40
33564;DHT22;19894;48.452;11.494;2023-04-06T04:04:37;18.20;27.40
33564;DHT22;19894;48.452;11.494;2023-04-06T04:07:03;18.20;27.40
33564;DHT22;19894;48.452;11.494;2023-04-06T04:09:28;18.20;27.40
33564;DHT22;19894;48.452;11.494;2023-04-06T04:11:54;18.20;27.30
33564;DHT22;19894;48.452;11.494;2023-04-06T04:14:20;18.20;27.30
33564;DHT22;19894;48.452;11.494;2023-04-06T04:16:46;18.20;27.50
33564;DHT22;19894;48.452;11.494;2023-04-06T04:19:11;18.20;27.50
33564;DHT22;19894;48.452;11.494;2023-04-06T04:21:43;18.20;28.00
33564;DHT22;19894;48.452;11.494;2023-04-06T04:24:12;18.20;28.20
33564;DHT22;19894;48.452;11.494;2023-04-06T04:26:38;18.20;28.10
33564;DHT22;19894;48.452;11.494;2023-04-06T04:29:04;18.20;27.60
33564;DHT22;19894;48.452;11.494;2023-04-06T04:31:30;18.20;27.50
33564;DHT22;19894;48.452;11.494;2023-04-06T04:33:56;18.20;27.40
33564;DHT22;19894;48.452;11.494;2023-04-06T04:36:22;18.20;27.30
33564;DHT22;19894;48.452;11.494;2023-04-06T04:38:49;18.20;27.40
33564;DHT22;19894;48.452;11.494;2023-04-06T04:41:15;18.20;27.90
33564;DHT22;19894;48.452;11.494;2023-04-06T04:43:40;18.20;28.20
33564;DHT22;19894;48.452;11.494;2023-04-06T04:46:06;18.20;27.90
33564;DHT22;19894;48.452;11.494;2023-04-06T04:48:32;18.20;27.70
33564;DHT22;19894;48.452;11.494;2023-04-06T04:50:57;18.20;27.60
33564;DHT22;19894;48.452;11.494;2023-04-06T04:53:23;18.20;27.60
33564;DHT22;19894;48.452;11.494;2023-04-06T04:55:48;18.20;27.50
33564;DHT22;19894;48.452;11.494;2023-04-06T04:58:14;18.20;27.40
33564;DHT22;19894;48.452;11.494;2023-04-06T05:00:42;18.20;27.40
33564;DHT22;19894;48.452;11.494;2023-04-06T05:03:08;18.20;27.30
33564;DHT22;19894;48.452;11.494;2023-04-06T05:05:34;18.20;27.40
33564;DHT22;19894;48.452;11.494;2023-04-06T05:08:01;18.20;27.30
33564;DHT22;19894;48.452;11.494;2023-04-06T05:10:26;18.20;27.30
33564;DHT22;19894;48.452;11.494;2023-04-06T05:12:52;18.20;27.30
33564;DHT22;19894;48.452;11.494;2023-04-06T05:15:18;18.20;27.20
33564;DHT22;19894;48.452;11.494;2023-04-06T05:17:43;18.20;27.20
33564;DHT22;19894;48.452;11.494;2023-04-06T05:20:09;18.20;27.40
33564;DHT22;19894;48.452;11.494;2023-04-06T05:22:35;18.20;27.60
33564;DHT22;19894;48.452;11.494;2023-04-06T05:25:02;18.20;28.00
33564;DHT22;19894;48.452;11.494;2023-04-06T05:27:27;18.20;28.20
33564;DHT22;19894;48.452;11.494;2023-04-06T05:29:53;18.20;28.00
33564;DHT22;19894;48.452;11.494;2023-04-06T05:32:19;18.20;27.70
33564;DHT22;19894;48.452;11.494;2023-04-06T05:34:48;18.20;27.60
33564;DHT22;19894;48.452;11.494;2023-04-06T05:37:13;18.20;27.60
33564;DHT22;19894;48.452;11.494;2023-04-06T05:39:39;18.20;27.40
33564;DHT22;19894;48.452;11.494;2023-04-06T05:42:05;18.20;27.40
33564;DHT22;19894;48.452;11.494;2023-04-06T05:44:31;18.20;27.80
33564;DHT22;19894;48.452;11.494;2023-04-06T05:46:57;18.20;27.90
33564;DHT22;19894;48.452;11.494;2023-04-06T05:49:22;18.20;27.40
33564;DHT22;19894;48.452;11.494;2023-04-06T05:51:48;18.20;27.70
33564;DHT22;19894;48.452;11.494;2023-04-06T05:54:14;18.20;27.60
33564;DHT22;19894;48.452;11.494;2023-04-06T05:56:39;18.20;27.60
33564;DHT22;19894;48.452;11.494;2023-04-06T05:59:05;18.20;27.50
33564;DHT22;19894;48.452;11.494;2023-04-06T06:01:31;18.20;27.40
33564;DHT22;19894;48.452;11.494;2023-04-06T06:03:56;18.20;27.40
33564;DHT22;19894;48.452;11.494;2023-04-06T06:06:22;18.20;27.40
33564;DHT22;19894;48.452;11.494;2023-04-06T06:08:47;18.20;27.40
33564;DHT22;19894;48.452;11.494;2023-04-06T06:11:13;18.20;27.40
33564;DHT22;19894;48.452;11.494;2023-04-06T06:13:39;18.20;27.40
33564;DHT22;19894;48.452;11.494;2023-04-06T06:16:05;18.10;27.30
33564;DHT22;19894;48.452;11.494;2023-04-06T06:18:30;18.10;27.30
33564;DHT22;19894;48.452;11.494;2023-04-06T06:20:56;18.20;27.40
33564;DHT22;19894;48.452;11.494;2023-04-06T06:23:22;18.20;27.40
33564;DHT22;19894;48.452;11.494;2023-04-06T06:25:47;18.20;27.50
33564;DHT22;19894;48.452;11.494;2023-04-06T06:28:13;18.20;27.90
33564;DHT22;19894;48.452;11.494;2023-04-06T06:30:39;18.20;28.00
33564;DHT22;19894;48.452;11.494;2023-04-06T06:33:04;18.10;27.70
33564;DHT22;19894;48.452;11.494;2023-04-06T06:35:30;18.20;27.70
33564;DHT22;19894;48.452;11.494;2023-04-06T06:37:55;18.20;27.60
33564;DHT22;19894;48.452;11.494;2023-04-06T06:40:21;18.20;27.60
33564;DHT22;19894;48.452;11.494;2023-04-06T06:42:49;18.20;27.60
33564;DHT22;19894;48.452;11.494;2023-04-06T06:45:16;18.20;27.50
33564;DHT22;19894;48.452;11.494;2023-04-06T06:47:41;18.20;27.70
33564;DHT22;19894;48.452;11.494;2023-04-06T06:50:07;18.20;28.30
33564;DHT22;19894;48.452;11.494;2023-04-06T06:52:32;18.20;28.10
33564;DHT22;19894;48.452;11.494;2023-04-06T06:54:58;18.20;27.90
33564;DHT22;19894;48.452;11.494;2023-04-06T06:57:24;18.20;28.00
33564;DHT22;19894;48.452;11.494;2023-04-06T06:59:50;18.20;28.00
33564;DHT22;19894;48.452;11.494;2023-04-06T07:02:15;18.20;27.90
33564;DHT22;19894;48.452;11.494;2023-04-06T07:04:41;18.20;28.00
33564;DHT22;19894;48.452;11.494;2023-04-06T07:07:06;18.20;28.00
33564;DHT22;19894;48.452;11.494;2023-04-06T07:09:32;18.20;28.00
33564;DHT22;19894;48.452;11.494;2023-04-06T07:11:58;18.20;28.00
33564;DHT22;19894;48.452;11.494;2023-04-06T07:14:24;18.20;28.00
33564;DHT22;19894;48.452;11.494;2023-04-06T07:16:49;18.20;28.00
33564;DHT22;19894;48.452;11.494;2023-04-06T07:19:16;18.20;28.10
33564;DHT22;19894;48.452;11.494;2023-04-06T07:21:41;18.20;28.00
33564;DHT22;19894;48.452;11.494;2023-04-06T07:24:07;18.20;28.10
33564;DHT22;19894;48.452;11.494;2023-04-06T07:26:33;18.20;28.20
33564;DHT22;19894;48.452;11.494;2023-04-06T07:28:58;18.20;28.20
33564;DHT22;19894;48.452;11.494;2023-04-06T07:31:24;18.20;28.50
33564;DHT22;19894;48.452;11.494;2023-04-06T07:33:50;18.20;28.30
33564;DHT22;19894;48.452;11.494;2023-04-06T07:36:15;18.20;28.20
33564;DHT22;19894;48.452;11.494;2023-04-06T07:38:41;18.20;28.20
33564;DHT22;19894;48.452;11.494;2023-04-06T07:41:06;18.20;28.20
33564;DHT22;19894;48.452;11.494;2023-04-06T07:43:32;18.20;28.20
33564;DHT22;19894;48.452;11.494;2023-04-06T07:45:57;18.20;28.20
33564;DHT22;19894;48.452;11.494;2023-04-06T07:48:24;18.20;28.20
33564;DHT22;19894;48.452;11.494;2023-04-06T07:50:50;18.20;28.20
33564;DHT22;19894;48.452;11.494;2023-04-06T07:53:16;18.20;28.40
33564;DHT22;19894;48.452;11.494;2023-04-06T07:55:41;18.20;28.50
33564;DHT22;19894;48.452;11.494;2023-04-06T07:58:07;18.20;28.40
33564;DHT22;19894;48.452;11.494;2023-04-06T08:00:33;18.20;28.40
33564;DHT22;19894;48.452;11.494;2023-04-06T08:02:58;18.20;28.60
33564;DHT22;19894;48.452;11.494;2023-04-06T08:05:24;18.20;28.60
33564;DHT22;19894;48.452;11.494;2023-04-06T08:07:50;18.20;28.60
33564;DHT22;19894;48.452;11.494;2023-04-06T08:10:15;18.20;28.60
33564;DHT22;19894;48.452;11.494;2023-04-06T08:12:41;18.20;28.50
33564;DHT22;19894;48.452;11.494;2023-04-06T08:15:07;18.20;28.60
33564;DHT22;19894;48.452;11.494;2023-04-06T08:17:32;18.20;28.60
33564;DHT22;19894;48.452;11.494;2023-04-06T08:19:59;18.20;28.50
33564;DHT22;19894;48.452;11.494;2023-04-06T08:22:25;18.20;28.60
33564;DHT22;19894;48.452;11.494;2023-04-06T08:24:51;18.20;28.70
33564;DHT22;19894;48.452;11.494;2023-04-06T08:27:16;18.20;28.70
33564;DHT22;19894;48.452;11.494;2023-04-06T08:29:42;18.20;28.90
33564;DHT22;19894;48.452;11.494;2023-04-06T08:32:07;18.20;28.80
33564;DHT22;19894;48.452;11.494;2023-04-06T08:34:33;18.20;28.60
33564;DHT22;19894;48.452;11.494;2023-04-06T08:36:59;18.20;28.60
33564;DHT22;19894;48.452;11.494;2023-04-06T08:39:25;18.20;28.50
33564;DHT22;19894;48.452;11.494;2023-04-06T08:41:53;18.20;28.50
33564;DHT22;19894;48.452;11.494;2023-04-06T08:44:22;18.20;28.50
33564;DHT22;19894;48.452;11.494;2023-04-06T08:46:48;18.20;28.50
33564;DHT22;19894;48.452;11.494;2023-04-06T08:49:14;18.20;28.50
33564;DHT22;19894;48.452;11.494;2023-04-06T08:51:42;18.20;28.50
33564;DHT22;19894;48.452;11.494;2023-04-06T08:54:07;18.30;28.50
33564;DHT22;19894;48.452;11.494;2023-04-06T08:56:36;18.20;28.50
33564;DHT22;19894;48.452;11.494;2023-04-06T08:59:03;18.20;28.70
33564;DHT22;19894;48.452;11.494;2023-04-06T09:01:29;18.20;29.00
33564;DHT22;19894;48.452;11.494;2023-04-06T09:03:58;18.20;28.90
33564;DHT22;19894;48.452;11.494;2023-04-06T09:06:25;18.20;28.70
33564;DHT22;19894;48.452;11.494;2023-04-06T09:08:52;18.20;28.70
33564;DHT22;19894;48.452;11.494;2023-04-06T09:11:17;18.20;28.70
33564;DHT22;19894;48.452;11.494;2023-04-06T09:13:48;18.20;28.70
33564;DHT22;19894;48.452;11.494;2023-04-06T09:16:14;18.20;28.70
33564;DHT22;19894;48.452;11.494;2023-04-06T09:18:40;18.20;28.80
33564;DHT22;19894;48.452;11.494;2023-04-06T09:21:07;18.20;28.80
33564;DHT22;19894;48.452;11.494;2023-04-06T09:23:33;18.20;28.70
33564;DHT22;19894;48.452;11.494;2023-04-06T09:26:13;18.20;28.70
33564;DHT22;19894;48.452;11.494;2023-04-06T09:28:53;18.20;28.70
33564;DHT22;19894;48.452;11.494;2023-04-06T09:33:49;18.20;28.90
33564;DHT22;19894;48.452;11.494;2023-04-06T09:36:15;18.20;28.70
33564;DHT22;19894;48.452;11.494;2023-04-06T09:38:57;18.20;28.50
33564;DHT22;19894;48.452;11.494;2023-04-06T09:41:27;18.20;28.30
33564;DHT22;19894;48.452;11.494;2023-04-06T09:44:11;18.20;28.30
33564;DHT22;19894;48.452;11.494;2023-04-06T09:46:44;18.20;28.30
33564;DHT22;19894;48.452;11.494;2023-04-06T09:49:11;18.20;28.30
33564;DHT22;19894;48.452;11.494;2023-04-06T09:51:40;18.20;28.30
33564;DHT22;19894;48.452;11.494;2023-04-06T09:54:06;18.20;28.30
33564;DHT22;19894;48.452;11.494;2023-04-06T09:56:46;18.20;28.30
33564;DHT22;19894;48.452;11.494;2023-04-06T09:59:26;18.20;28.30
33564;DHT22;19894;48.452;11.494;2023-04-06T10:01:56;18.20;28.50
33564;DHT22;19894;48.452;11.494;2023-04-06T10:07:08;18.20;28.90
33564;DHT22;19894;48.452;11.494;2023-04-06T10:09:35;18.20;28.90
33564;DHT22;19894;48.452;11.494;2023-04-06T10:12:06;18.20;28.80
33564;DHT22;19894;48.452;11.494;2023-04-06T10:14:35;18.20;28.80
33564;DHT22;19894;48.452;11.494;2023-04-06T10:17:04;18.20;28.80
33564;DHT22;19894;48.452;11.494;2023-04-06T10:19:49;18.20;28.80
33564;DHT22;19894;48.452;11.494;2023-04-06T10:22:23;18.20;28.80
33564;DHT22;19894;48.452;11.494;2023-04-06T10:24:51;18.20;28.80
33564;DHT22;19894;48.452;11.494;2023-04-06T10:27:27;18.20;28.80
33564;DHT22;19894;48.452;11.494;2023-04-06T10:29:54;18.20;28.80
33564;DHT22;19894;48.452;11.494;2023-04-06T10:32:19;18.20;28.80
33564;DHT22;19894;48.452;11.494;2023-04-06T10:34:45;18.20;28.70
33564;DHT22;19894;48.452;11.494;2023-04-06T10:37:13;18.20;28.80
33564;DHT22;19894;48.452;11.494;2023-04-06T10:39:46;18.20;28.60
33564;DHT22;19894;48.452;11.494;2023-04-06T10:42:12;18.20;28.40
33564;DHT22;19894;48.452;11.494;2023-04-06T10:44:43;18.20;28.40
33564;DHT22;19894;48.452;11.494;2023-04-06T10:47:16;18.20;28.30
33564;DHT22;19894;48.452;11.494;2023-04-06T10:49:45;18.20;28.30
33564;DHT22;19894;48.452;11.494;2023-04-06T10:52:10;18.20;28.30
33564;DHT22;19894;48.452;11.494;2023-04-06T10:54:41;18.20;28.30
33564;DHT22;19894;48.452;11.494;2023-04-06T10:57:08;18.20;28.20
33564;DHT22;19894;48.452;11.494;2023-04-06T10:59:33;18.30;28.20
33564;DHT22;19894;48.452;11.494;2023-04-06T11:01:59;18.30;28.30
33564;DHT22;19894;48.452;11.494;2023-04-06T11:04:24;18.20;28.40
33564;DHT22;19894;48.452;11.494;2023-04-06T11:06:50;18.20;28.50
33564;DHT22;19894;48.452;11.494;2023-04-06T11:09:24;18.20;28.80
33564;DHT22;19894;48.452;11.494;2023-04-06T11:11:50;18.20;29.00
33564;DHT22;19894;48.452;11.494;2023-04-06T11:14:16;18.20;28.90
33564;DHT22;19894;48.452;11.494;2023-04-06T11:16:41;18.20;28.80
33564;DHT22;19894;48.452;11.494;2023-04-06T11:19:07;18.20;28.80
33564;DHT22;19894;48.452;11.494;2023-04-06T11:21:47;18.20;28.80
33564;DHT22;19894;48.452;11.494;2023-04-06T11:24:13;18.20;28.70
33564;DHT22;19894;48.452;11.494;2023-04-06T11:26:46;18.20;28.70
33564;DHT22;19894;48.452;11.494;2023-04-06T11:29:15;18.20;28.80
33564;DHT22;19894;48.452;11.494;2023-04-06T11:31:48;18.20;28.70
33564;DHT22;19894;48.452;11.494;2023-04-06T11:34:22;18.20;28.80
33564;DHT22;19894;48.452;11.494;2023-04-06T11:36:55;18.20;28.80
33564;DHT22;19894;48.452;11.494;2023-04-06T11:39:23;18.20;29.20
33564;DHT22;19894;48.452;11.494;2023-04-06T11:41:50;18.20;28.60
33564;DHT22;19894;48.452;11.494;2023-04-06T11:44:36;18.20;28.40
33564;DHT22;19894;48.452;11.494;2023-04-06T11:47:05;18.20;28.30
33564;DHT22;19894;48.452;11.494;2023-04-06T11:49:32;18.20;28.60
33564;DHT22;19894;48.452;11.494;2023-04-06T11:51:59;18.20;28.20
33564;DHT22;19894;48.452;11.494;2023-04-06T11:54:36;18.20;28.20
33564;DHT22;19894;48.452;11.494;2023-04-06T11:57:07;18.20;28.10
33564;DHT22;19894;48.452;11.494;2023-04-06T11:59:33;18.20;28.10
33564;DHT22;19894;48.452;11.494;2023-04-06T12:02:00;18.20;28.20
33564;DHT22;19894;48.452;11.494;2023-04-06T12:04:26;18.20;28.20
33564;DHT22;19894;48.452;11.494;2023-04-06T12:06:51;18.20;28.30
33564;DHT22;19894;48.452;11.494;2023-04-06T12:09:17;18.30;28.50
33564;DHT22;19894;48.452;11.494;2023-04-06T12:11:43;18.30;28.50
33564;DHT22;19894;48.452;11.494;2023-04-06T12:14:09;18.20;28.80
33564;DHT22;19894;48.452;11.494;2023-04-06T12:16:35;18.20;28.90
33564;DHT22;19894;48.452;11.494;2023-04-06T12:19:00;18.20;28.90
33564;DHT22;19894;48.452;11.494;2023-04-06T12:21:27;18.20;28.90
33564;DHT22;19894;48.452;11.494;2023-04-06T12:23:53;18.20;28.90
33564;DHT22;19894;48.452;11.494;2023-04-06T12:26:19;18.20;28.90
33564;DHT22;19894;48.452;11.494;2023-04-06T12:28:45;18.20;28.80
33564;DHT22;19894;48.452;11.494;2023-04-06T12:31:18;18.20;28.90
33564;DHT22;19894;48.452;11.494;2023-04-06T12:33:47;18.20;28.80
33564;DHT22;19894;48.452;11.494;2023-04-06T12:36:17;18.20;28.80
33564;DHT22;19894;48.452;11.494;2023-04-06T12:38:50;18.20;28.80
33564;DHT22;19894;48.452;11.494;2023-04-06T12:41:18;18.20;28.70
33564;DHT22;19894;48.452;11.494;2023-04-06T12:43:44;18.20;28.90
33564;DHT22;19894;48.452;11.494;2023-04-06T12:46:10;18.30;28.50
33564;DHT22;19894;48.452;11.494;2023-04-06T12:48:36;18.20;28.30
33564;DHT22;19894;48.452;11.494;2023-04-06T12:51:04;18.20;28.20
33564;DHT22;19894;48.452;11.494;2023-04-06T12:53:30;18.20;28.20
33564;DHT22;19894;48.452;11.494;2023-04-06T12:55:57;18.20;28.30
33564;DHT22;19894;48.452;11.494;2023-04-06T12:58:23;18.20;28.20
33564;DHT22;19894;48.452;11.494;2023-04-06T13:00:50;18.20;28.20
33564;DHT22;19894;48.452;11.494;2023-04-06T13:03:16;18.20;28.20
33564;DHT22;19894;48.452;11.494;2023-04-06T13:05:50;18.30;28.20
33564;DHT22;19894;48.452;11.494;2023-04-06T13:08:17;18.30;28.30
33564;DHT22;19894;48.452;11.494;2023-04-06T13:10:52;18.30;28.30
33564;DHT22;19894;48.452;11.494;2023-04-06T13:13:22;18.30;28.40
33564;DHT22;19894;48.452;11.494;2023-04-06T13:15:48;18.30;28.70
33564;DHT22;19894;48.452;11.494;2023-04-06T13:18:14;18.20;28.80
33564;DHT22;19894;48.452;11.494;2023-04-06T13:20:39;18.20;28.80
33564;DHT22;19894;48.452;11.494;2023-04-06T13:23:05;18.20;28.90
33564;DHT22;19894;48.452;11.494;2023-04-06T13:25:31;18.20;28.90
33564;DHT22;19894;48.452;11.494;2023-04-06T13:27:58;18.20;28.90
33564;DHT22;19894;48.452;11.494;2023-04-06T13:30:23;18.20;28.90
33564;DHT22;19894;48.452;11.494;2023-04-06T13:32:49;18.20;29.00
33564;DHT22;19894;48.452;11.494;2023-04-06T13:35:15;18.20;28.90
33564;DHT22;19894;48.452;11.494;2023-04-06T13:37:42;18.20;28.90
33564;DHT22;19894;48.452;11.494;2023-04-06T13:40:08;18.20;28.90
33564;DHT22;19894;48.452;11.494;2023-04-06T13:42:34;18.20;28.90
33564;DHT22;19894;48.452;11.494;2023-04-06T13:45:00;18.20;28.80
33564;DHT22;19894;48.452;11.494;2023-04-06T13:47:26;18.20;28.80
33564;DHT22;19894;48.452;11.494;2023-04-06T13:49:53;18.20;28.60
33564;DHT22;19894;48.452;11.494;2023-04-06T13:52:19;18.20;28.40
33564;DHT22;19894;48.452;11.494;2023-04-06T13:54:45;18.20;28.40
33564;DHT22;19894;48.452;11.494;2023-04-06T13:57:11;18.20;28.40
33564;DHT22;19894;48.452;11.494;2023-04-06T13:59:38;18.20;28.30
33564;DHT22;19894;48.452;11.494;2023-04-06T14:02:05;18.20;28.30
33564;DHT22;19894;48.452;11.494;2023-04-06T14:04:31;18.30;28.40
33564;DHT22;19894;48.452;11.494;2023-04-06T14:06:58;18.30;28.30
33564;DHT22;19894;48.452;11.494;2023-04-06T14:09:23;18.30;28.30
33564;DHT22;19894;48.452;11.494;2023-04-06T14:11:50;18.30;28.40
33564;DHT22;19894;48.452;11.494;2023-04-06T14:14:16;18.30;28.50
33564;DHT22;19894;48.452;11.494;2023-04-06T14:16:42;18.30;28.40
33564;DHT22;19894;48.452;11.494;2023-04-06T14:19:17;18.30;28.50
33564;DHT22;19894;48.452;11.494;2023-04-06T14:21:44;18.30;28.80
33564;DHT22;19894;48.452;11.494;2023-04-06T14:24:10;18.20;28.90
33564;DHT22;19894;48.452;11.494;2023-04-06T14:26:37;18.30;28.90
33564;DHT22;19894;48.452;11.494;2023-04-06T14:29:04;18.30;29.00
33564;DHT22;19894;48.452;11.494;2023-04-06T14:31:30;18.20;28.90
33564;DHT22;19894;48.452;11.494;2023-04-06T14:33:56;18.30;28.90
33564;DHT22;19894;48.452;11.494;2023-04-06T14:36:22;18.30;28.90
33564;DHT22;19894;48.452;11.494;2023-04-06T14:38:48;18.20;29.00
33564;DHT22;19894;48.452;11.494;2023-04-06T14:41:17;18.20;28.90
33564;DHT22;19894;48.452;11.494;2023-04-06T14:43:43;18.20;28.90
33564;DHT22;19894;48.452;11.494;2023-04-06T14:46:09;18.20;28.90
33564;DHT22;19894;48.452;11.494;2023-04-06T14:48:35;18.20;28.80
33564;DHT22;19894;48.452;11.494;2023-04-06T14:51:01;18.20;28.70
33564;DHT22;19894;48.452;11.494;2023-04-06T14:53:26;18.20;28.50
33564;DHT22;19894;48.452;11.494;2023-04-06T14:55:53;18.20;28.30
33564;DHT22;19894;48.452;11.494;2023-04-06T14:58:20;18.20;28.20
33564;DHT22;19894;48.452;11.494;2023-04-06T15:00:46;18.20;28.20
33564;DHT22;19894;48.452;11.494;2023-04-06T15:03:12;18.30;28.20
33564;DHT22;19894;48.452;11.494;2023-04-06T15:05:37;18.30;28.30
33564;DHT22;19894;48.452;11.494;2023-04-06T15:08:03;18.30;28.30
33564;DHT22;19894;48.452;11.494;2023-04-06T15:10:31;18.30;28.30
33564;DHT22;19894;48.452;11.494;2023-04-06T15:12:57;18.30;28.30
33564;DHT22;19894;48.452;11.494;2023-04-06T15:15:22;18.30;28.40
33564;DHT22;19894;48.452;11.494;2023-04-06T15:17:48;18.30;28.40